sensor_id;sensor_type;location;lat;lon;timestamp;temperature;humidity
18717;DHT22;9487;50.892;6.906;2023-04-08T00:00:05;8.90;99.90
18717;DHT22;9487;50.892;6.906;2023-04-08T00:02:32;8.90;99.90
18717;DHT22;9487;50.892;6.906;2023-04-08T00:04:59;8.90;99.90
18717;DHT22;9487;50.892;6.906;2023-04-08T00:07:26;8.80;99.90
18717;DHT22;9487;50.892;6.906;2023-04-08T00:09:53;8.80;99.90
18717;DHT22;9487;50.892;6.906;2023-04-08T00:12:20;9.00;99.90
18717;DHT22;9487;50.892;6.906;2023-04-08T00:14:48;9.10;99.90
18717;DHT22;9487;50.892;6.906;2023-04-08T00:17:15;9.20;99.90
18717;DHT22;9487;50.892;6.906;2023-04-08T00:19:42;9.20;99.90
18717;DHT22;9487;50.892;6.906;2023-04-08T00:22:09;9.10;99.90
18717;DHT22;9487;50.892;6.906;2023-04-08T00:24:36;9.10;99.90
18717;DHT22;9487;50.892;6.906;2023-04-08T00:27:04;9.10;99.90
18717;DHT22;9487;50.892;6.906;2023-04-08T00:29:31;9.10;99.90
18717;DHT22;9487;50.892;6.906;2023-04-08T00:31:59;9.00;99.90
18717;DHT22;9487;50.892;6.906;2023-04-08T00:34:27;8.90;99.90
18717;DHT22;9487;50.892;6.906;2023-04-08T00:36:54;8.90;99.90
18717;DHT22;9487;50.892;6.906;2023-04-08T00:39:21;8.80;99.90
18717;DHT22;9487;50.892;6.906;2023-04-08T00:41:48;8.90;99.90
18717;DHT22;9487;50.892;6.906;2023-04-08T00:44:14;8.90;99.90
18717;DHT22;9487;50.892;6.906;2023-04-08T00:46:42;8.90;99.90
18717;DHT22;9487;50.892;6.906;2023-04-08T00:49:10;8.90;99.90
18717;DHT22;9487;50.892;6.906;2023-04-08T00:51:37;8.90;99.90
18717;DHT22;9487;50.892;6.906;2023-04-08T00:54:04;8.90;99.90
18717;DHT22;9487;50.892;6.906;2023-04-08T00:56:32;9.00;99.90
18717;DHT22;9487;50.892;6.906;2023-04-08T00:59:00;8.90;99.90
18717;DHT22;9487;50.892;6.906;2023-04-08T01:01:33;9.00;99.90
18717;DHT22;9487;50.892;6.906;2023-04-08T01:04:06;8.90;99.90
18717;DHT22;9487;50.892;6.906;2023-04-08T01:06:39;9.10;99.90
18717;DHT22;9487;50.892;6.906;2023-04-08T01:09:08;9.00;99.90
18717;DHT22;9487;50.892;6.906;2023-04-08T01:11:38;9.00;99.90
18717;DHT22;9487;50.892;6.906;2023-04-08T01:14:06;8.90;99.90
18717;DHT22;9487;50.892;6.906;2023-04-08T01:16:36;8.80;99.90
18717;DHT22;9487;50.892;6.906;2023-04-08T01:19:04;8.90;99.90
18717;DHT22;9487;50.892;6.906;2023-04-08T01:21:35;8.80;99.90
18717;DHT22;9487;50.892;6.906;2023-04-08T01:24:08;8.80;99.90
18717;DHT22;9487;50.892;6.906;2023-04-08T01:26:39;8.70;99.90
18717;DHT22;9487;50.892;6.906;2023-04-08T01:29:07;8.70;99.90
18717;DHT22;9487;50.892;6.906;2023-04-08T01:31:35;8.70;99.90
18717;DHT22;9487;50.892;6.906;2023-04-08T01:34:03;8.70;99.90
18717;DHT22;9487;50.892;6.906;2023-04-08T01:36:31;8.70;99.90
18717;DHT22;9487;50.892;6.906;2023-04-08T01:38:59;8.70;99.90
18717;DHT22;9487;50.892;6.906;2023-04-08T01:41:28;8.70;99.90
18717;DHT22;9487;50.892;6.906;2023-04-08T01:43:57;8.70;99.90
18717;DHT22;9487;50.892;6.906;2023-04-08T01:46:24;8.70;99.90
18717;DHT22;9487;50.892;6.906;2023-04-08T01:48:53;8.60;99.90
18717;DHT22;9487;50.892;6.906;2023-04-08T01:51:21;8.60;99.90
18717;DHT22;9487;50.892;6.906;2023-04-08T01:53:48;8.60;99.90
18717;DHT22;9487;50.892;6.906;2023-04-08T01:56:15;8.60;99.90
18717;DHT22;9487;50.892;6.906;2023-04-08T01:58:45;8.70;99.90
18717;DHT22;9487;50.892;6.906;2023-04-08T02:01:16;8.70;99.90
18717;DHT22;9487;50.892;6.906;2023-04-08T02:03:46;8.60;99.90
18717;DHT22;9487;50.892;6.906;2023-04-08T02:06:16;8.60;99.90
18717;DHT22;9487;50.892;6.906;2023-04-08T02:08:43;8.60;99.90
18717;DHT22;9487;50.892;6.906;2023-04-08T02:11:10;8.50;99.90
18717;DHT22;9487;50.892;6.906;2023-04-08T02:13:37;8.50;99.90
18717;DHT22;9487;50.892;6.906;2023-04-08T02:16:10;8.50;99.90
18717;DHT22;9487;50.892;6.906;2023-04-08T02:18:43;8.50;99.90
18717;DHT22;9487;50.892;6.906;2023-04-08T02:21:14;8.50;99.90
18717;DHT22;9487;50.892;6.906;2023-04-08T02:23:41;8.50;99.90
18717;DHT22;9487;50.892;6.906;2023-04-08T02:26:13;8.50;99.90
18717;DHT22;9487;50.892;6.906;2023-04-08T02:28:41;8.50;99.90
18717;DHT22;9487;50.892;6.906;2023-04-08T02:31:10;8.50;99.90
18717;DHT22;9487;50.892;6.906;2023-04-08T02:33:40;8.50;99.90
18717;DHT22;9487;50.892;6.906;2023-04-08T02:36:08;8.50;99.90
18717;DHT22;9487;50.892;6.906;2023-04-08T02:38:36;8.50;99.90
18717;DHT22;9487;50.892;6.906;2023-04-08T02:41:03;8.50;99.90
18717;DHT22;9487;50.892;6.906;2023-04-08T02:43:30;8.50;99.90
18717;DHT22;9487;50.892;6.906;2023-04-08T02:45:57;8.40;99.90
18717;DHT22;9487;50.892;6.906;2023-04-08T02:48:27;8.50;99.90
18717;DHT22;9487;50.892;6.906;2023-04-08T02:50:55;8.50;99.90
18717;DHT22;9487;50.892;6.906;2023-04-08T02:53:23;8.50;99.90
18717;DHT22;9487;50.892;6.906;2023-04-08T02:55:50;8.40;99.90
18717;DHT22;9487;50.892;6.906;2023-04-08T02:58:16;8.50;99.90
18717;DHT22;9487;50.892;6.906;2023-04-08T03:00:43;8.50;99.90
18717;DHT22;9487;50.892;6.906;2023-04-08T03:03:10;8.50;99.90
18717;DHT22;9487;50.892;6.906;2023-04-08T03:05:37;8.50;99.90
18717;DHT22;9487;50.892;6.906;2023-04-08T03:08:05;8.40;99.90
18717;DHT22;9487;50.892;6.906;2023-04-08T03:10:32;8.40;99.90
18717;DHT22;9487;50.892;6.906;2023-04-08T03:12:59;8.40;99.90
18717;DHT22;9487;50.892;6.906;2023-04-08T03:15:26;8.30;99.90
18717;DHT22;9487;50.892;6.906;2023-04-08T03:17:52;8.50;99.90
18717;DHT22;9487;50.892;6.906;2023-04-08T03:20:19;8.50;99.90
18717;DHT22;9487;50.892;6.906;2023-04-08T03:22:46;8.40;99.90
18717;DHT22;9487;50.892;6.906;2023-04-08T03:25:14;8.60;99.90
18717;DHT22;9487;50.892;6.906;2023-04-08T03:27:41;8.60;99.90
18717;DHT22;9487;50.892;6.906;2023-04-08T03:30:08;8.50;99.90
18717;DHT22;9487;50.892;6.906;2023-04-08T03:32:35;8.40;99.90
18717;DHT22;9487;50.892;6.906;2023-04-08T03:35:02;8.40;99.90
18717;DHT22;9487;50.892;6.906;2023-04-08T03:37:29;8.40;99.90
18717;DHT22;9487;50.892;6.906;2023-04-08T03:39:56;8.40;99.90
18717;DHT22;9487;50.892;6.906;2023-04-08T03:42:24;8.40;99.90
18717;DHT22;9487;50.892;6.906;2023-04-08T03:44:51;8.50;99.90
18717;DHT22;9487;50.892;6.906;2023-04-08T03:47:18;8.50;99.90
18717;DHT22;9487;50.892;6.906;2023-04-08T03:49:45;8.60;99.90
18717;DHT22;9487;50.892;6.906;2023-04-08T03:52:12;8.60;99.90
18717;DHT22;9487;50.892;6.906;2023-04-08T03:54:38;8.60;99.90
18717;DHT22;9487;50.892;6.906;2023-04-08T03:57:05;8.60;99.90
18717;DHT22;9487;50.892;6.906;2023-04-08T03:59:33;8.50;99.90
18717;DHT22;9487;50.892;6.906;2023-04-08T04:02:00;8.40;99.90
18717;DHT22;9487;50.892;6.906;2023-04-08T04:04:27;8.40;99.90
18717;DHT22;9487;50.892;6.906;2023-04-08T04:06:54;8.30;99.90
18717;DHT22;9487;50.892;6.906;2023-04-08T04:09:21;8.30;99.90
18717;DHT22;9487;50.892;6.906;2023-04-08T04:11:48;8.20;99.90
18717;DHT22;9487;50.892;6.906;2023-04-08T04:14:15;8.20;99.90
18717;DHT22;9487;50.892;6.906;2023-04-08T04:16:43;8.30;99.90
18717;DHT22;9487;50.892;6.906;2023-04-08T04:19:10;8.30;99.90
18717;DHT22;9487;50.892;6.906;2023-04-08T04:21:37;8.30;99.90
18717;DHT22;9487;50.892;6.906;2023-04-08T04:24:04;8.30;99.90
18717;DHT22;9487;50.892;6.906;2023-04-08T04:26:31;8.20;99.90
18717;DHT22;9487;50.892;6.906;2023-04-08T04:28:57;8.30;99.90
18717;DHT22;9487;50.892;6.906;2023-04-08T04:31:24;8.50;99.90
18717;DHT22;9487;50.892;6.906;2023-04-08T04:33:53;8.50;99.90
18717;DHT22;9487;50.892;6.906;2023-04-08T04:36:20;8.50;99.90
18717;DHT22;9487;50.892;6.906;2023-04-08T04:38:46;8.30;99.90
18717;DHT22;9487;50.892;6.906;2023-04-08T04:41:14;8.40;99.90
18717;DHT22;9487;50.892;6.906;2023-04-08T04:43:41;8.30;99.90
18717;DHT22;9487;50.892;6.906;2023-04-08T04:46:08;8.30;99.90
18717;DHT22;9487;50.892;6.906;2023-04-08T04:48:35;8.30;99.90
18717;DHT22;9487;50.892;6.906;2023-04-08T04:51:03;8.20;99.90
18717;DHT22;9487;50.892;6.906;2023-04-08T04:53:32;8.20;99.90
18717;DHT22;9487;50.892;6.906;2023-04-08T04:55:58;8.30;99.90
18717;DHT22;9487;50.892;6.906;2023-04-08T04:58:26;8.40;99.90
18717;DHT22;9487;50.892;6.906;2023-04-08T05:00:53;8.40;99.90
18717;DHT22;9487;50.892;6.906;2023-04-08T05:03:19;8.50;99.90
18717;DHT22;9487;50.892;6.906;2023-04-08T05:05:50;8.50;99.90
18717;DHT22;9487;50.892;6.906;2023-04-08T05:08:18;8.50;99.90
18717;DHT22;9487;50.892;6.906;2023-04-08T05:10:45;8.40;99.90
18717;DHT22;9487;50.892;6.906;2023-04-08T05:13:14;8.30;99.90
18717;DHT22;9487;50.892;6.906;2023-04-08T05:15:41;8.40;99.90
18717;DHT22;9487;50.892;6.906;2023-04-08T05:18:08;8.40;99.90
18717;DHT22;9487;50.892;6.906;2023-04-08T05:20:35;8.40;99.90
18717;DHT22;9487;50.892;6.906;2023-04-08T05:23:02;8.30;99.90
18717;DHT22;9487;50.892;6.906;2023-04-08T05:25:30;8.30;99.90
18717;DHT22;9487;50.892;6.906;2023-04-08T05:27:57;8.30;99.90
18717;DHT22;9487;50.892;6.906;2023-04-08T05:30:23;8.30;99.90
18717;DHT22;9487;50.892;6.906;2023-04-08T05:32:50;8.40;99.90
18717;DHT22;9487;50.892;6.906;2023-04-08T05:35:17;8.40;99.90
18717;DHT22;9487;50.892;6.906;2023-04-08T05:37:44;8.40;99.90
18717;DHT22;9487;50.892;6.906;2023-04-08T05:40:11;8.40;99.90
18717;DHT22;9487;50.892;6.906;2023-04-08T05:42:39;8.40;99.90
18717;DHT22;9487;50.892;6.906;2023-04-08T05:45:07;8.40;99.90
18717;DHT22;9487;50.892;6.906;2023-04-08T05:47:34;8.40;99.90
18717;DHT22;9487;50.892;6.906;2023-04-08T05:50:01;8.40;99.90
18717;DHT22;9487;50.892;6.906;2023-04-08T05:52:28;8.40;99.90
18717;DHT22;9487;50.892;6.906;2023-04-08T05:54:55;8.60;99.90
18717;DHT22;9487;50.892;6.906;2023-04-08T05:57:21;8.60;99.90
18717;DHT22;9487;50.892;6.906;2023-04-08T05:59:49;8.50;99.90
18717;DHT22;9487;50.892;6.906;2023-04-08T06:02:17;8.50;99.90
18717;DHT22;9487;50.892;6.906;2023-04-08T06:04:44;8.50;99.90
18717;DHT22;9487;50.892;6.906;2023-04-08T06:07:11;8.60;99.90
18717;DHT22;9487;50.892;6.906;2023-04-08T06:09:38;8.50;99.90
18717;DHT22;9487;50.892;6.906;2023-04-08T06:12:05;8.50;99.90
18717;DHT22;9487;50.892;6.906;2023-04-08T06:14:32;8.50;99.90
18717;DHT22;9487;50.892;6.906;2023-04-08T06:17:00;8.40;99.90
18717;DHT22;9487;50.892;6.906;2023-04-08T06:19:26;8.50;99.90
18717;DHT22;9487;50.892;6.906;2023-04-08T06:21:53;8.50;99.90
18717;DHT22;9487;50.892;6.906;2023-04-08T06:24:23;8.50;99.90
18717;DHT22;9487;50.892;6.906;2023-04-08T06:26:50;8.50;99.90
18717;DHT22;9487;50.892;6.906;2023-04-08T06:29:19;8.50;99.90
18717;DHT22;9487;50.892;6.906;2023-04-08T06:31:46;8.40;99.90
18717;DHT22;9487;50.892;6.906;2023-04-08T06:34:14;8.50;99.90
18717;DHT22;9487;50.892;6.906;2023-04-08T06:36:41;8.50;99.90
18717;DHT22;9487;50.892;6.906;2023-04-08T06:39:08;8.50;99.90
18717;DHT22;9487;50.892;6.906;2023-04-08T06:41:35;8.50;99.90
18717;DHT22;9487;50.892;6.906;2023-04-08T06:44:02;8.60;99.90
18717;DHT22;9487;50.892;6.906;2023-04-08T06:46:29;8.50;99.90
18717;DHT22;9487;50.892;6.906;2023-04-08T06:48:56;8.60;99.90
18717;DHT22;9487;50.892;6.906;2023-04-08T06:51:24;8.60;99.90
18717;DHT22;9487;50.892;6.906;2023-04-08T06:53:52;8.50;99.90
18717;DHT22;9487;50.892;6.906;2023-04-08T06:56:19;8.50;99.90
18717;DHT22;9487;50.892;6.906;2023-04-08T06:58:47;8.40;99.90
18717;DHT22;9487;50.892;6.906;2023-04-08T07:01:14;8.40;99.90
18717;DHT22;9487;50.892;6.906;2023-04-08T07:03:41;8.50;99.90
18717;DHT22;9487;50.892;6.906;2023-04-08T07:06:08;8.40;99.90
18717;DHT22;9487;50.892;6.906;2023-04-08T07:08:36;8.40;99.90
18717;DHT22;9487;50.892;6.906;2023-04-08T07:11:03;8.40;99.90
18717;DHT22;9487;50.892;6.906;2023-04-08T07:13:31;8.50;99.90
18717;DHT22;9487;50.892;6.906;2023-04-08T07:15:57;8.50;99.90
18717;DHT22;9487;50.892;6.906;2023-04-08T07:18:24;8.50;99.90
18717;DHT22;9487;50.892;6.906;2023-04-08T07:20:52;8.40;99.90
18717;DHT22;9487;50.892;6.906;2023-04-08T07:23:19;8.40;99.90
18717;DHT22;9487;50.892;6.906;2023-04-08T07:25:47;8.40;99.90
18717;DHT22;9487;50.892;6.906;2023-04-08T07:28:14;8.60;99.90
18717;DHT22;9487;50.892;6.906;2023-04-08T07:30:41;8.60;99.90
18717;DHT22;9487;50.892;6.906;2023-04-08T07:33:08;8.70;99.90
18717;DHT22;9487;50.892;6.906;2023-04-08T07:35:34;8.70;99.90
18717;DHT22;9487;50.892;6.906;2023-04-08T07:38:02;8.80;99.90
18717;DHT22;9487;50.892;6.906;2023-04-08T07:40:29;8.80;99.90
18717;DHT22;9487;50.892;6.906;2023-04-08T07:42:57;8.80;99.90
18717;DHT22;9487;50.892;6.906;2023-04-08T07:45:24;8.90;99.90
18717;DHT22;9487;50.892;6.906;2023-04-08T07:47:51;9.00;99.90
18717;DHT22;9487;50.892;6.906;2023-04-08T07:50:18;9.00;99.90
18717;DHT22;9487;50.892;6.906;2023-04-08T07:52:44;9.10;99.90
18717;DHT22;9487;50.892;6.906;2023-04-08T07:55:11;9.10;99.90
18717;DHT22;9487;50.892;6.906;2023-04-08T07:57:38;9.10;99.90
18717;DHT22;9487;50.892;6.906;2023-04-08T08:00:07;9.20;99.90
18717;DHT22;9487;50.892;6.906;2023-04-08T08:02:34;9.20;99.90
18717;DHT22;9487;50.892;6.906;2023-04-08T08:05:01;9.40;99.90
18717;DHT22;9487;50.892;6.906;2023-04-08T08:07:28;9.60;99.90
18717;DHT22;9487;50.892;6.906;2023-04-08T08:09:55;9.70;99.90
18717;DHT22;9487;50.892;6.906;2023-04-08T08:12:22;9.90;99.90
18717;DHT22;9487;50.892;6.906;2023-04-08T08:14:49;9.90;99.90
18717;DHT22;9487;50.892;6.906;2023-04-08T08:17:20;9.70;99.90
18717;DHT22;9487;50.892;6.906;2023-04-08T08:19:47;9.60;99.90
18717;DHT22;9487;50.892;6.906;2023-04-08T08:22:14;9.60;99.90
18717;DHT22;9487;50.892;6.906;2023-04-08T08:24:41;9.60;99.90
18717;DHT22;9487;50.892;6.906;2023-04-08T08:27:09;9.60;99.90
18717;DHT22;9487;50.892;6.906;2023-04-08T08:29:36;9.50;99.90
18717;DHT22;9487;50.892;6.906;2023-04-08T08:32:03;9.60;99.90
18717;DHT22;9487;50.892;6.906;2023-04-08T08:34:31;9.60;99.90
18717;DHT22;9487;50.892;6.906;2023-04-08T08:36:58;9.70;99.90
18717;DHT22;9487;50.892;6.906;2023-04-08T08:39:24;9.70;99.90
18717;DHT22;9487;50.892;6.906;2023-04-08T08:41:51;9.70;99.90
18717;DHT22;9487;50.892;6.906;2023-04-08T08:44:18;9.80;99.90
18717;DHT22;9487;50.892;6.906;2023-04-08T08:46:46;10.00;99.90
18717;DHT22;9487;50.892;6.906;2023-04-08T08:49:13;10.10;99.90
18717;DHT22;9487;50.892;6.906;2023-04-08T08:51:45;10.00;99.90
18717;DHT22;9487;50.892;6.906;2023-04-08T08:54:13;10.10;99.90
18717;DHT22;9487;50.892;6.906;2023-04-08T08:56:40;10.10;99.90
18717;DHT22;9487;50.892;6.906;2023-04-08T08:59:07;10.10;99.90
18717;DHT22;9487;50.892;6.906;2023-04-08T09:01:35;10.10;99.90
18717;DHT22;9487;50.892;6.906;2023-04-08T09:04:07;10.10;99.90
18717;DHT22;9487;50.892;6.906;2023-04-08T09:06:35;10.20;99.90
18717;DHT22;9487;50.892;6.906;2023-04-08T09:09:03;10.10;99.90
18717;DHT22;9487;50.892;6.906;2023-04-08T09:11:35;10.10;99.90
18717;DHT22;9487;50.892;6.906;2023-04-08T09:14:02;10.20;99.90
18717;DHT22;9487;50.892;6.906;2023-04-08T09:16:31;10.20;99.90
18717;DHT22;9487;50.892;6.906;2023-04-08T09:19:07;10.30;99.90
18717;DHT22;9487;50.892;6.906;2023-04-08T09:21:35;10.40;99.90
18717;DHT22;9487;50.892;6.906;2023-04-08T09:24:03;10.40;99.90
18717;DHT22;9487;50.892;6.906;2023-04-08T09:26:30;10.40;99.90
18717;DHT22;9487;50.892;6.906;2023-04-08T09:28:58;10.40;99.90
18717;DHT22;9487;50.892;6.906;2023-04-08T09:31:28;10.40;99.90
18717;DHT22;9487;50.892;6.906;2023-04-08T09:33:56;10.40;99.90
18717;DHT22;9487;50.892;6.906;2023-04-08T09:36:23;10.40;99.90
18717;DHT22;9487;50.892;6.906;2023-04-08T09:38:52;10.40;99.90
18717;DHT22;9487;50.892;6.906;2023-04-08T09:41:21;10.40;99.90
18717;DHT22;9487;50.892;6.906;2023-04-08T09:43:50;10.40;99.90
18717;DHT22;9487;50.892;6.906;2023-04-08T09:46:18;10.50;99.90
18717;DHT22;9487;50.892;6.906;2023-04-08T09:48:51;10.40;99.90
18717;DHT22;9487;50.892;6.906;2023-04-08T09:51:22;10.40;99.90
18717;DHT22;9487;50.892;6.906;2023-04-08T09:53:55;10.50;99.90
18717;DHT22;9487;50.892;6.906;2023-04-08T09:56:32;10.50;99.90
18717;DHT22;9487;50.892;6.906;2023-04-08T09:59:06;10.50;99.90
18717;DHT22;9487;50.892;6.906;2023-04-08T10:01:37;10.30;99.90
18717;DHT22;9487;50.892;6.906;2023-04-08T10:04:06;10.40;99.90
18717;DHT22;9487;50.892;6.906;2023-04-08T10:06:35;10.50;99.90
18717;DHT22;9487;50.892;6.906;2023-04-08T10:09:03;10.50;99.90
18717;DHT22;9487;50.892;6.906;2023-04-08T10:11:32;10.60;99.90
18717;DHT22;9487;50.892;6.906;2023-04-08T10:13:59;10.70;99.90
18717;DHT22;9487;50.892;6.906;2023-04-08T10:16:27;10.70;99.90
18717;DHT22;9487;50.892;6.906;2023-04-08T10:18:55;10.70;99.90
18717;DHT22;9487;50.892;6.906;2023-04-08T10:21:35;10.70;99.90
18717;DHT22;9487;50.892;6.906;2023-04-08T10:24:06;10.60;99.90
18717;DHT22;9487;50.892;6.906;2023-04-08T10:26:36;10.80;99.90
18717;DHT22;9487;50.892;6.906;2023-04-08T10:29:30;10.70;99.90
18717;DHT22;9487;50.892;6.906;2023-04-08T10:31:57;10.70;99.90
18717;DHT22;9487;50.892;6.906;2023-04-08T10:34:25;10.90;99.90
18717;DHT22;9487;50.892;6.906;2023-04-08T10:36:53;10.80;99.90
18717;DHT22;9487;50.892;6.906;2023-04-08T10:39:21;10.80;99.90
18717;DHT22;9487;50.892;6.906;2023-04-08T10:41:49;10.80;99.90
18717;DHT22;9487;50.892;6.906;2023-04-08T10:44:17;10.90;99.90
18717;DHT22;9487;50.892;6.906;2023-04-08T10:46:44;10.80;99.90
18717;DHT22;9487;50.892;6.906;2023-04-08T10:49:11;10.90;99.90
18717;DHT22;9487;50.892;6.906;2023-04-08T10:51:38;10.80;99.90
18717;DHT22;9487;50.892;6.906;2023-04-08T10:54:06;10.80;99.90
18717;DHT22;9487;50.892;6.906;2023-04-08T10:56:35;10.70;99.90
18717;DHT22;9487;50.892;6.906;2023-04-08T10:59:04;10.80;99.90
18717;DHT22;9487;50.892;6.906;2023-04-08T11:01:37;10.90;99.90
18717;DHT22;9487;50.892;6.906;2023-04-08T11:04:10;10.90;99.90
18717;DHT22;9487;50.892;6.906;2023-04-08T11:06:37;11.00;99.90
18717;DHT22;9487;50.892;6.906;2023-04-08T11:09:04;10.90;99.90
18717;DHT22;9487;50.892;6.906;2023-04-08T11:11:31;10.90;99.90
18717;DHT22;9487;50.892;6.906;2023-04-08T11:13:58;11.10;99.90
18717;DHT22;9487;50.892;6.906;2023-04-08T11:16:26;11.10;99.90
18717;DHT22;9487;50.892;6.906;2023-04-08T11:18:53;11.30;99.90
18717;DHT22;9487;50.892;6.906;2023-04-08T11:21:22;11.30;99.90
18717;DHT22;9487;50.892;6.906;2023-04-08T11:23:50;11.10;99.90
18717;DHT22;9487;50.892;6.906;2023-04-08T11:26:17;11.10;99.90
18717;DHT22;9487;50.892;6.906;2023-04-08T11:28:45;11.10;99.90
18717;DHT22;9487;50.892;6.906;2023-04-08T11:31:14;11.10;99.90
18717;DHT22;9487;50.892;6.906;2023-04-08T11:33:46;11.10;99.90
18717;DHT22;9487;50.892;6.906;2023-04-08T11:36:14;11.20;99.90
18717;DHT22;9487;50.892;6.906;2023-04-08T11:38:41;11.10;99.90
18717;DHT22;9487;50.892;6.906;2023-04-08T11:41:08;11.20;99.90
18717;DHT22;9487;50.892;6.906;2023-04-08T11:43:36;11.30;99.90
18717;DHT22;9487;50.892;6.906;2023-04-08T11:46:08;11.20;99.90
18717;DHT22;9487;50.892;6.906;2023-04-08T11:48:37;11.20;99.90
18717;DHT22;9487;50.892;6.906;2023-04-08T11:51:07;11.10;99.90
18717;DHT22;9487;50.892;6.906;2023-04-08T11:53:34;11.30;99.90
18717;DHT22;9487;50.892;6.906;2023-04-08T11:56:17;11.20;99.90
18717;DHT22;9487;50.892;6.906;2023-04-08T11:58:44;11.40;99.90
18717;DHT22;9487;50.892;6.906;2023-04-08T12:01:11;11.30;99.90
18717;DHT22;9487;50.892;6.906;2023-04-08T12:03:38;11.10;99.90
18717;DHT22;9487;50.892;6.906;2023-04-08T12:06:07;11.20;99.90
18717;DHT22;9487;50.892;6.906;2023-04-08T12:08:34;11.10;99.90
18717;DHT22;9487;50.892;6.906;2023-04-08T12:11:01;11.00;99.90
18717;DHT22;9487;50.892;6.906;2023-04-08T12:13:27;10.90;99.90
18717;DHT22;9487;50.892;6.906;2023-04-08T12:15:55;10.90;99.90
18717;DHT22;9487;50.892;6.906;2023-04-08T12:18:22;11.00;99.90
18717;DHT22;9487;50.892;6.906;2023-04-08T12:20:49;10.90;99.90
18717;DHT22;9487;50.892;6.906;2023-04-08T12:23:17;10.90;99.90
18717;DHT22;9487;50.892;6.906;2023-04-08T12:25:44;10.80;99.90
18717;DHT22;9487;50.892;6.906;2023-04-08T12:28:11;10.80;99.90
18717;DHT22;9487;50.892;6.906;2023-04-08T12:30:37;10.90;99.90
18717;DHT22;9487;50.892;6.906;2023-04-08T12:33:04;10.90;99.90
18717;DHT22;9487;50.892;6.906;2023-04-08T12:35:31;10.90;99.90
18717;DHT22;9487;50.892;6.906;2023-04-08T12:37:58;10.80;99.90
18717;DHT22;9487;50.892;6.906;2023-04-08T12:40:26;10.80;99.90
18717;DHT22;9487;50.892;6.906;2023-04-08T12:42:53;10.90;99.90
18717;DHT22;9487;50.892;6.906;2023-04-08T12:45:20;10.80;99.90
18717;DHT22;9487;50.892;6.906;2023-04-08T12:47:47;10.90;99.90
18717;DHT22;9487;50.892;6.906;2023-04-08T12:50:14;11.00;99.90
18717;DHT22;9487;50.892;6.906;2023-04-08T12:52:41;10.90;99.90
18717;DHT22;9487;50.892;6.906;2023-04-08T12:55:08;10.80;99.90
18717;DHT22;9487;50.892;6.906;2023-04-08T12:57:37;10.80;99.90
18717;DHT22;9487;50.892;6.906;2023-04-08T13:00:04;10.90;99.90
18717;DHT22;9487;50.892;6.906;2023-04-08T13:02:31;10.80;99.90
18717;DHT22;9487;50.892;6.906;2023-04-08T13:04:58;10.90;99.90
18717;DHT22;9487;50.892;6.906;2023-04-08T13:07:25;10.80;99.90
18717;DHT22;9487;50.892;6.906;2023-04-08T13:09:51;10.90;99.90
18717;DHT22;9487;50.892;6.906;2023-04-08T13:12:18;11.00;99.90
18717;DHT22;9487;50.892;6.906;2023-04-08T13:14:46;11.10;99.90
18717;DHT22;9487;50.892;6.906;2023-04-08T13:17:13;11.10;99.90
18717;DHT22;9487;50.892;6.906;2023-04-08T13:19:40;11.10;99.90
18717;DHT22;9487;50.892;6.906;2023-04-08T13:22:07;11.20;99.90
18717;DHT22;9487;50.892;6.906;2023-04-08T13:24:33;11.20;99.90
18717;DHT22;9487;50.892;6.906;2023-04-08T13:27:00;11.30;99.90
18717;DHT22;9487;50.892;6.906;2023-04-08T13:29:28;11.40;99.90
18717;DHT22;9487;50.892;6.906;2023-04-08T13:31:56;11.30;99.90
18717;DHT22;9487;50.892;6.906;2023-04-08T13:34:23;11.40;99.90
18717;DHT22;9487;50.892;6.906;2023-04-08T13:36:49;11.40;99.90
18717;DHT22;9487;50.892;6.906;2023-04-08T13:39:16;11.60;99.90
18717;DHT22;9487;50.892;6.906;2023-04-08T13:41:43;11.60;99.90
18717;DHT22;9487;50.892;6.906;2023-04-08T13:44:10;11.60;99.90
18717;DHT22;9487;50.892;6.906;2023-04-08T13:46:37;11.40;99.90
18717;DHT22;9487;50.892;6.906;2023-04-08T13:49:05;11.40;99.90
18717;DHT22;9487;50.892;6.906;2023-04-08T13:51:32;11.40;99.90
18717;DHT22;9487;50.892;6.906;2023-04-08T13:53:59;11.40;99.90
18717;DHT22;9487;50.892;6.906;2023-04-08T13:56:25;11.30;99.90
18717;DHT22;9487;50.892;6.906;2023-04-08T13:58:52;11.30;99.90
18717;DHT22;9487;50.892;6.906;2023-04-08T14:01:19;11.40;99.90
18717;DHT22;9487;50.892;6.906;2023-04-08T14:03:46;11.40;99.90
18717;DHT22;9487;50.892;6.906;2023-04-08T14:06:15;11.50;99.90
18717;DHT22;9487;50.892;6.906;2023-04-08T14:08:42;11.50;99.90
18717;DHT22;9487;50.892;6.906;2023-04-08T14:11:09;11.50;99.90
18717;DHT22;9487;50.892;6.906;2023-04-08T14:13:35;11.50;99.90
18717;DHT22;9487;50.892;6.906;2023-04-08T14:16:02;11.40;99.90
18717;DHT22;9487;50.892;6.906;2023-04-08T14:18:29;11.50;99.90
18717;DHT22;9487;50.892;6.906;2023-04-08T14:20:56;11.50;99.90
18717;DHT22;9487;50.892;6.906;2023-04-08T14:23:24;11.50;99.90
18717;DHT22;9487;50.892;6.906;2023-04-08T14:25:51;11.60;99.90
18717;DHT22;9487;50.892;6.906;2023-04-08T14:28:18;11.70;99.90
18717;DHT22;9487;50.892;6.906;2023-04-08T14:30:45;11.60;99.90
18717;DHT22;9487;50.892;6.906;2023-04-08T14:33:12;11.60;99.90
18717;DHT22;9487;50.892;6.906;2023-04-08T14:35:39;11.50;99.90
18717;DHT22;9487;50.892;6.906;2023-04-08T14:38:06;11.60;99.90
18717;DHT22;9487;50.892;6.906;2023-04-08T14:40:34;11.70;99.90
18717;DHT22;9487;50.892;6.906;2023-04-08T14:43:00;11.80;99.90
18717;DHT22;9487;50.892;6.906;2023-04-08T14:45:27;11.60;99.90
18717;DHT22;9487;50.892;6.906;2023-04-08T14:47:54;11.40;99.90
18717;DHT22;9487;50.892;6.906;2023-04-08T14:50:21;11.40;99.90
18717;DHT22;9487;50.892;6.906;2023-04-08T14:52:48;11.40;99.90
18717;DHT22;9487;50.892;6.906;2023-04-08T14:55:15;11.30;99.90
18717;DHT22;9487;50.892;6.906;2023-04-08T14:57:43;11.30;99.90
18717;DHT22;9487;50.892;6.906;2023-04-08T15:00:11;11.40;99.90
18717;DHT22;9487;50.892;6.906;2023-04-08T15:02:38;11.40;99.90
18717;DHT22;9487;50.892;6.906;2023-04-08T15:05:06;11.30;99.90
18717;DHT22;9487;50.892;6.906;2023-04-08T15:07:33;11.40;99.90
18717;DHT22;9487;50.892;6.906;2023-04-08T15:10:00;11.50;99.90
18717;DHT22;9487;50.892;6.906;2023-04-08T15:12:26;11.60;99.90
18717;DHT22;9487;50.892;6.906;2023-04-08T15:14:55;11.60;99.90
18717;DHT22;9487;50.892;6.906;2023-04-08T15:17:21;11.80;99.90
18717;DHT22;9487;50.892;6.906;2023-04-08T15:19:49;11.90;99.90
18717;DHT22;9487;50.892;6.906;2023-04-08T15:22:15;12.10;99.90
18717;DHT22;9487;50.892;6.906;2023-04-08T15:24:42;12.20;99.90
18717;DHT22;9487;50.892;6.906;2023-04-08T15:27:09;12.20;99.90
18717;DHT22;9487;50.892;6.906;2023-04-08T15:29:36;12.20;99.90
18717;DHT22;9487;50.892;6.906;2023-04-08T15:32:04;11.80;99.90
18717;DHT22;9487;50.892;6.906;2023-04-08T15:34:31;11.80;99.90
18717;DHT22;9487;50.892;6.906;2023-04-08T15:36:58;11.60;99.90
18717;DHT22;9487;50.892;6.906;2023-04-08T15:39:26;11.70;99.90
18717;DHT22;9487;50.892;6.906;2023-04-08T15:41:53;11.70;99.90
18717;DHT22;9487;50.892;6.906;2023-04-08T15:44:20;11.80;99.90
18717;DHT22;9487;50.892;6.906;2023-04-08T15:46:47;11.80;99.90
18717;DHT22;9487;50.892;6.906;2023-04-08T15:49:15;11.70;99.90
18717;DHT22;9487;50.892;6.906;2023-04-08T15:51:42;11.50;99.90
18717;DHT22;9487;50.892;6.906;2023-04-08T15:54:09;11.50;99.90
18717;DHT22;9487;50.892;6.906;2023-04-08T15:56:36;11.50;99.90